This is the latest recevied weather packets stored in our database for station/object DL3MEB-6. If no packets are shown the sender has not sent any weather packets the latest 10 day(s).
| Time | Temp. | Humidity | Pressure | Rain* | Wind** | Luminosity | Snow |
|---|---|---|---|---|---|---|---|
| 1787753998 | 30.56° C | 38% | 1014.9 hPa | 0 mm | - | - | - |
| 1787753093 | 30.56° C | 41% | 1015 hPa | 0 mm | - | - | - |
| 1787752189 | 30° C | 42% | 1015 hPa | 0 mm | - | - | - |
| 1787751279 | 29.44° C | 40% | 1015 hPa | 0 mm | - | - | - |
| 1787750379 | 30° C | 43% | 1014.9 hPa | 0 mm | - | - | - |
| 1787749470 | 29.44° C | 46% | 1015 hPa | 0 mm | - | - | - |
| 1787748561 | 28.89° C | 46% | 1015.1 hPa | 0 mm | - | - | - |
| 1787747660 | 28.33° C | 51% | 1015.1 hPa | 0 mm | - | - | - |
| 1787746754 | 28.33° C | 50% | 1015.3 hPa | 0 mm | - | - | - |
| 1787745850 | 27.78° C | 52% | 1015.3 hPa | 0 mm | - | - | - |
| 1787744942 | 27.22° C | 54% | 1015.6 hPa | 0 mm | - | - | - |
| 1787744040 | 27.22° C | 54% | 1015.7 hPa | 0 mm | - | - | - |
| 1787743136 | 26.67° C | 53% | 1015.9 hPa | 0 mm | - | - | - |
| 1787742224 | 25.56° C | 57% | 1016 hPa | 0 mm | - | - | - |
| 1787740411 | 25° C | 61% | 1016.2 hPa | 0 mm | - | - | - |
| 1787738605 | 23.33° C | 72% | 1016.5 hPa | 0 mm | - | - | - |
| 1787736792 | 21.67° C | 76% | 1016.9 hPa | 0 mm | - | - | - |
| 1787735884 | 20.56° C | 81% | 1017 hPa | 0 mm | - | - | - |
| 1787734983 | 20° C | 87% | 1017 hPa | 0 mm | - | - | - |
| 1787733166 | 18.33° C | 98% | 1017 hPa | 0 mm | - | - | - |
| 1787732256 | 17.78° C | 99% | 1016.8 hPa | 0 mm | - | - | - |
| 1787730452 | 16.67° C | 10% | - | 0 mm | - | - | - |
| 1787729540 | 16.11° C | 99% | 1016.6 hPa | 0 mm | - | - | - |
| 1787728634 | 16.11° C | 99% | 1016.5 hPa | 0 mm | - | - | - |
| 1787727721 | 16.11° C | 99% | 1016.5 hPa | 0 mm | - | - | - |
* Rain latest hour (hover to see other rain measurements)
** Current wind speed in m/s (hover to see current wind gust speed)